sensor_id;sensor_type;location;lat;lon;timestamp;pressure;altitude;pressure_sealevel;temperature;humidity
31771;BME280;18343;50.152;8.182;2023-02-24T00:01:45;97118.78;;;8.70;100.00
31771;BME280;18343;50.152;8.182;2023-02-24T00:04:32;97115.84;;;8.65;100.00
31771;BME280;18343;50.152;8.182;2023-02-24T00:07:18;97114.78;;;8.45;100.00
31771;BME280;18343;50.152;8.182;2023-02-24T00:10:03;97112.09;;;8.45;100.00
31771;BME280;18343;50.152;8.182;2023-02-24T00:12:49;97105.53;;;8.47;100.00
31771;BME280;18343;50.152;8.182;2023-02-24T00:15:34;97105.41;;;8.56;100.00
31771;BME280;18343;50.152;8.182;2023-02-24T00:18:19;97101.97;;;8.62;100.00
31771;BME280;18343;50.152;8.182;2023-02-24T00:21:05;97096.53;;;8.55;100.00
31771;BME280;18343;50.152;8.182;2023-02-24T00:23:50;97095.47;;;8.20;100.00
31771;BME280;18343;50.152;8.182;2023-02-24T00:26:35;97092.13;;;8.47;100.00
31771;BME280;18343;50.152;8.182;2023-02-24T00:29:21;97087.47;;;8.56;100.00
31771;BME280;18343;50.152;8.182;2023-02-24T00:32:07;97083.78;;;8.57;100.00
31771;BME280;18343;50.152;8.182;2023-02-24T00:34:52;97076.19;;;8.61;100.00
31771;BME280;18343;50.152;8.182;2023-02-24T00:37:37;97084.50;;;8.66;100.00
31771;BME280;18343;50.152;8.182;2023-02-24T00:40:21;97079.34;;;8.64;100.00
31771;BME280;18343;50.152;8.182;2023-02-24T00:43:06;97082.66;;;8.66;100.00
31771;BME280;18343;50.152;8.182;2023-02-24T00:45:52;97082.28;;;8.69;100.00
31771;BME280;18343;50.152;8.182;2023-02-24T00:48:37;97075.06;;;8.70;100.00
31771;BME280;18343;50.152;8.182;2023-02-24T00:51:24;97066.66;;;8.73;100.00
31771;BME280;18343;50.152;8.182;2023-02-24T00:54:10;97065.81;;;8.72;100.00
31771;BME280;18343;50.152;8.182;2023-02-24T00:56:55;97057.97;;;8.71;100.00
31771;BME280;18343;50.152;8.182;2023-02-24T00:59:40;97056.72;;;8.52;100.00
31771;BME280;18343;50.152;8.182;2023-02-24T01:02:26;97059.75;;;8.49;100.00
31771;BME280;18343;50.152;8.182;2023-02-24T01:05:11;97052.97;;;8.46;100.00
31771;BME280;18343;50.152;8.182;2023-02-24T01:07:56;97053.44;;;8.35;100.00
31771;BME280;18343;50.152;8.182;2023-02-24T01:10:41;97052.41;;;8.36;100.00
31771;BME280;18343;50.152;8.182;2023-02-24T01:13:26;97046.22;;;8.36;100.00
31771;BME280;18343;50.152;8.182;2023-02-24T01:16:11;97042.53;;;8.37;100.00
31771;BME280;18343;50.152;8.182;2023-02-24T01:18:58;97044.38;;;8.36;100.00
31771;BME280;18343;50.152;8.182;2023-02-24T01:21:43;97036.16;;;8.38;100.00
31771;BME280;18343;50.152;8.182;2023-02-24T01:24:29;97031.44;;;8.40;100.00
31771;BME280;18343;50.152;8.182;2023-02-24T01:27:16;97027.56;;;8.42;100.00
31771;BME280;18343;50.152;8.182;2023-02-24T01:30:01;97018.31;;;8.45;100.00
31771;BME280;18343;50.152;8.182;2023-02-24T01:32:46;97022.25;;;8.49;100.00
31771;BME280;18343;50.152;8.182;2023-02-24T01:35:32;97019.56;;;8.49;100.00
31771;BME280;18343;50.152;8.182;2023-02-24T01:38:16;97013.38;;;8.48;100.00
31771;BME280;18343;50.152;8.182;2023-02-24T01:41:01;97012.78;;;8.46;100.00
31771;BME280;18343;50.152;8.182;2023-02-24T01:44:01;97006.31;;;8.41;100.00
31771;BME280;18343;50.152;8.182;2023-02-24T01:46:48;97004.00;;;8.38;100.00
31771;BME280;18343;50.152;8.182;2023-02-24T01:49:37;96992.09;;;8.40;100.00
31771;BME280;18343;50.152;8.182;2023-02-24T01:52:28;96998.28;;;8.41;100.00
31771;BME280;18343;50.152;8.182;2023-02-24T01:55:19;96993.09;;;8.39;100.00
31771;BME280;18343;50.152;8.182;2023-02-24T01:58:10;96989.59;;;8.39;100.00
31771;BME280;18343;50.152;8.182;2023-02-24T02:00:56;96985.81;;;8.33;100.00
31771;BME280;18343;50.152;8.182;2023-02-24T02:03:41;96984.50;;;8.29;100.00
31771;BME280;18343;50.152;8.182;2023-02-24T02:06:26;96993.94;;;8.25;100.00
31771;BME280;18343;50.152;8.182;2023-02-24T02:09:14;96993.09;;;8.25;100.00
31771;BME280;18343;50.152;8.182;2023-02-24T02:11:59;96993.22;;;8.17;100.00
31771;BME280;18343;50.152;8.182;2023-02-24T02:14:47;96980.09;;;8.22;100.00
31771;BME280;18343;50.152;8.182;2023-02-24T02:17:38;96986.91;;;8.24;100.00
31771;BME280;18343;50.152;8.182;2023-02-24T02:24:32;96986.84;;;8.32;100.00
31771;BME280;18343;50.152;8.182;2023-02-24T02:27:59;96982.00;;;8.28;100.00
31771;BME280;18343;50.152;8.182;2023-02-24T02:31:21;96975.13;;;8.19;100.00
31771;BME280;18343;50.152;8.182;2023-02-24T02:34:31;96974.34;;;8.25;100.00
31771;BME280;18343;50.152;8.182;2023-02-24T02:37:23;96968.81;;;8.26;100.00
31771;BME280;18343;50.152;8.182;2023-02-24T02:40:19;96974.09;;;8.34;100.00
31771;BME280;18343;50.152;8.182;2023-02-24T02:43:15;96970.84;;;8.39;100.00
31771;BME280;18343;50.152;8.182;2023-02-24T02:46:07;96972.31;;;8.41;100.00
31771;BME280;18343;50.152;8.182;2023-02-24T02:48:58;96960.13;;;8.39;100.00
31771;BME280;18343;50.152;8.182;2023-02-24T02:51:48;96966.31;;;8.39;100.00
31771;BME280;18343;50.152;8.182;2023-02-24T02:54:41;96963.63;;;8.39;100.00
31771;BME280;18343;50.152;8.182;2023-02-24T02:57:29;96959.09;;;8.40;100.00
31771;BME280;18343;50.152;8.182;2023-02-24T03:00:16;96955.59;;;8.39;100.00
31771;BME280;18343;50.152;8.182;2023-02-24T03:03:07;96956.03;;;8.43;100.00
31771;BME280;18343;50.152;8.182;2023-02-24T03:05:57;96945.31;;;8.43;100.00
31771;BME280;18343;50.152;8.182;2023-02-24T03:08:51;96942.47;;;8.44;100.00
31771;BME280;18343;50.152;8.182;2023-02-24T03:11:37;96949.84;;;8.42;100.00
31771;BME280;18343;50.152;8.182;2023-02-24T03:14:27;96947.81;;;8.44;100.00
31771;BME280;18343;50.152;8.182;2023-02-24T03:17:17;96938.50;;;8.40;100.00
31771;BME280;18343;50.152;8.182;2023-02-24T03:20:08;96942.00;;;8.41;100.00
31771;BME280;18343;50.152;8.182;2023-02-24T03:22:59;96942.22;;;8.25;100.00
31771;BME280;18343;50.152;8.182;2023-02-24T03:25:53;96942.00;;;8.26;100.00
31771;BME280;18343;50.152;8.182;2023-02-24T03:28:43;96937.75;;;8.32;100.00
31771;BME280;18343;50.152;8.182;2023-02-24T03:31:39;96933.06;;;8.34;100.00
31771;BME280;18343;50.152;8.182;2023-02-24T03:34:33;96935.38;;;8.37;100.00
31771;BME280;18343;50.152;8.182;2023-02-24T03:37:23;96929.63;;;8.40;100.00
31771;BME280;18343;50.152;8.182;2023-02-24T03:40:11;96923.91;;;8.43;100.00
31771;BME280;18343;50.152;8.182;2023-02-24T03:43:02;96923.06;;;8.42;100.00
31771;BME280;18343;50.152;8.182;2023-02-24T03:45:49;96923.00;;;8.21;100.00
31771;BME280;18343;50.152;8.182;2023-02-24T03:48:39;96926.59;;;8.28;100.00
31771;BME280;18343;50.152;8.182;2023-02-24T03:51:26;96921.22;;;8.28;100.00
31771;BME280;18343;50.152;8.182;2023-02-24T03:54:27;96913.66;;;8.32;100.00
31771;BME280;18343;50.152;8.182;2023-02-24T03:57:27;96906.28;;;8.34;100.00
31771;BME280;18343;50.152;8.182;2023-02-24T04:00:22;96908.56;;;8.37;100.00
31771;BME280;18343;50.152;8.182;2023-02-24T04:03:19;96909.41;;;8.37;100.00
31771;BME280;18343;50.152;8.182;2023-02-24T04:06:11;96899.91;;;8.35;100.00
31771;BME280;18343;50.152;8.182;2023-02-24T04:09:04;96897.41;;;8.33;100.00
31771;BME280;18343;50.152;8.182;2023-02-24T04:11:55;96897.13;;;8.28;100.00
31771;BME280;18343;50.152;8.182;2023-02-24T04:14:50;96891.75;;;8.28;100.00
31771;BME280;18343;50.152;8.182;2023-02-24T04:17:42;96888.25;;;8.28;100.00
31771;BME280;18343;50.152;8.182;2023-02-24T04:20:31;96889.09;;;8.28;100.00
31771;BME280;18343;50.152;8.182;2023-02-24T04:23:22;96889.91;;;8.29;100.00
31771;BME280;18343;50.152;8.182;2023-02-24T04:26:09;96875.69;;;8.28;100.00
31771;BME280;18343;50.152;8.182;2023-02-24T04:28:56;96868.28;;;8.30;100.00
31771;BME280;18343;50.152;8.182;2023-02-24T04:31:41;96874.66;;;8.29;100.00
31771;BME280;18343;50.152;8.182;2023-02-24T04:34:26;96860.81;;;8.26;100.00
31771;BME280;18343;50.152;8.182;2023-02-24T04:37:11;96865.34;;;8.25;100.00
31771;BME280;18343;50.152;8.182;2023-02-24T04:40:23;96866.72;;;8.14;100.00
31771;BME280;18343;50.152;8.182;2023-02-24T04:43:08;96859.69;;;8.13;100.00
31771;BME280;18343;50.152;8.182;2023-02-24T04:45:53;96861.38;;;8.14;100.00
31771;BME280;18343;50.152;8.182;2023-02-24T04:48:52;96852.31;;;8.15;100.00
31771;BME280;18343;50.152;8.182;2023-02-24T04:51:38;96846.31;;;8.13;100.00
31771;BME280;18343;50.152;8.182;2023-02-24T04:54:23;96841.97;;;8.12;100.00
31771;BME280;18343;50.152;8.182;2023-02-24T04:57:07;96846.50;;;8.12;100.00
31771;BME280;18343;50.152;8.182;2023-02-24T04:59:52;96838.47;;;8.12;100.00
31771;BME280;18343;50.152;8.182;2023-02-24T05:02:46;96842.63;;;8.14;100.00
31771;BME280;18343;50.152;8.182;2023-02-24T05:05:34;96843.56;;;8.07;100.00
31771;BME280;18343;50.152;8.182;2023-02-24T05:08:40;96833.75;;;8.14;100.00
31771;BME280;18343;50.152;8.182;2023-02-24T05:11:25;96838.22;;;8.07;100.00
31771;BME280;18343;50.152;8.182;2023-02-24T05:14:12;96825.84;;;8.06;100.00
31771;BME280;18343;50.152;8.182;2023-02-24T05:16:57;96841.19;;;7.97;100.00
31771;BME280;18343;50.152;8.182;2023-02-24T05:19:41;96830.81;;;7.88;100.00
31771;BME280;18343;50.152;8.182;2023-02-24T05:22:29;96828.19;;;7.94;100.00
31771;BME280;18343;50.152;8.182;2023-02-24T05:25:15;96830.25;;;7.92;100.00
31771;BME280;18343;50.152;8.182;2023-02-24T05:27:59;96825.91;;;7.91;100.00
31771;BME280;18343;50.152;8.182;2023-02-24T05:30:44;96822.16;;;7.86;100.00
31771;BME280;18343;50.152;8.182;2023-02-24T05:33:33;96810.03;;;7.90;100.00
31771;BME280;18343;50.152;8.182;2023-02-24T05:36:26;96815.63;;;7.95;100.00
31771;BME280;18343;50.152;8.182;2023-02-24T05:39:11;96817.44;;;7.88;100.00
31771;BME280;18343;50.152;8.182;2023-02-24T05:42:03;96815.59;;;7.88;100.00
31771;BME280;18343;50.152;8.182;2023-02-24T05:45:03;96814.13;;;7.86;100.00
31771;BME280;18343;50.152;8.182;2023-02-24T05:47:48;96811.44;;;7.86;100.00
31771;BME280;18343;50.152;8.182;2023-02-24T05:50:32;96817.88;;;7.91;100.00
31771;BME280;18343;50.152;8.182;2023-02-24T05:53:17;96802.25;;;7.95;100.00
31771;BME280;18343;50.152;8.182;2023-02-24T05:56:02;96800.84;;;7.99;100.00
31771;BME280;18343;50.152;8.182;2023-02-24T05:59:12;96794.53;;;8.06;100.00
31771;BME280;18343;50.152;8.182;2023-02-24T06:01:57;96791.41;;;8.03;100.00
31771;BME280;18343;50.152;8.182;2023-02-24T06:04:44;96792.63;;;8.00;100.00
31771;BME280;18343;50.152;8.182;2023-02-24T06:07:30;96784.41;;;8.02;100.00
31771;BME280;18343;50.152;8.182;2023-02-24T06:10:15;96789.69;;;7.95;100.00
31771;BME280;18343;50.152;8.182;2023-02-24T06:13:01;96789.28;;;7.92;100.00
31771;BME280;18343;50.152;8.182;2023-02-24T06:15:47;96792.97;;;7.91;100.00
31771;BME280;18343;50.152;8.182;2023-02-24T06:18:31;96789.28;;;7.92;100.00
31771;BME280;18343;50.152;8.182;2023-02-24T06:21:17;96793.38;;;7.94;100.00
31771;BME280;18343;50.152;8.182;2023-02-24T06:24:02;96787.84;;;7.96;100.00
31771;BME280;18343;50.152;8.182;2023-02-24T06:26:46;96783.69;;;7.93;100.00
31771;BME280;18343;50.152;8.182;2023-02-24T06:29:31;96782.25;;;7.91;100.00
31771;BME280;18343;50.152;8.182;2023-02-24T06:32:18;96788.38;;;7.85;100.00
31771;BME280;18343;50.152;8.182;2023-02-24T06:35:03;96793.78;;;7.70;100.00
31771;BME280;18343;50.152;8.182;2023-02-24T06:37:49;96790.53;;;7.74;100.00
31771;BME280;18343;50.152;8.182;2023-02-24T06:40:33;96788.28;;;7.78;100.00
31771;BME280;18343;50.152;8.182;2023-02-24T06:43:18;96786.06;;;7.81;100.00
31771;BME280;18343;50.152;8.182;2023-02-24T06:46:03;96789.38;;;7.84;100.00
31771;BME280;18343;50.152;8.182;2023-02-24T06:48:49;96784.03;;;7.84;100.00
31771;BME280;18343;50.152;8.182;2023-02-24T06:51:34;96791.03;;;7.85;100.00
31771;BME280;18343;50.152;8.182;2023-02-24T06:54:19;96800.09;;;7.84;100.00
31771;BME280;18343;50.152;8.182;2023-02-24T06:57:04;96795.56;;;7.84;100.00
31771;BME280;18343;50.152;8.182;2023-02-24T06:59:49;96786.34;;;7.87;100.00
31771;BME280;18343;50.152;8.182;2023-02-24T07:02:38;96782.06;;;7.92;100.00
31771;BME280;18343;50.152;8.182;2023-02-24T07:05:30;96775.47;;;7.95;100.00
31771;BME280;18343;50.152;8.182;2023-02-24T07:08:18;96788.03;;;7.94;100.00
31771;BME280;18343;50.152;8.182;2023-02-24T07:11:09;96776.56;;;8.00;100.00
31771;BME280;18343;50.152;8.182;2023-02-24T07:14:00;96779.03;;;8.02;100.00
31771;BME280;18343;50.152;8.182;2023-02-24T07:16:45;96774.72;;;8.01;100.00
31771;BME280;18343;50.152;8.182;2023-02-24T07:19:30;96773.88;;;8.00;100.00
31771;BME280;18343;50.152;8.182;2023-02-24T07:22:16;96769.56;;;7.78;100.00
31771;BME280;18343;50.152;8.182;2023-02-24T07:25:01;96771.72;;;7.46;100.00
31771;BME280;18343;50.152;8.182;2023-02-24T07:27:46;96770.88;;;7.67;100.00
31771;BME280;18343;50.152;8.182;2023-02-24T07:30:30;96764.47;;;7.83;100.00
31771;BME280;18343;50.152;8.182;2023-02-24T07:33:15;96758.81;;;7.93;100.00
31771;BME280;18343;50.152;8.182;2023-02-24T07:36:04;96756.34;;;7.98;100.00
31771;BME280;18343;50.152;8.182;2023-02-24T07:38:52;96758.44;;;8.02;100.00
31771;BME280;18343;50.152;8.182;2023-02-24T07:41:37;96757.06;;;8.06;100.00
31771;BME280;18343;50.152;8.182;2023-02-24T07:44:22;96752.97;;;8.10;100.00
31771;BME280;18343;50.152;8.182;2023-02-24T07:47:06;96745.38;;;8.14;100.00
31771;BME280;18343;50.152;8.182;2023-02-24T07:49:51;96747.81;;;8.09;100.00
31771;BME280;18343;50.152;8.182;2023-02-24T07:52:36;96748.19;;;8.06;100.00
31771;BME280;18343;50.152;8.182;2023-02-24T07:55:22;96746.53;;;8.05;100.00
31771;BME280;18343;50.152;8.182;2023-02-24T07:58:06;96748.59;;;7.81;100.00
31771;BME280;18343;50.152;8.182;2023-02-24T08:00:51;96743.13;;;7.90;100.00
31771;BME280;18343;50.152;8.182;2023-02-24T08:03:36;96753.06;;;7.74;100.00
31771;BME280;18343;50.152;8.182;2023-02-24T08:06:21;96738.47;;;7.77;100.00
31771;BME280;18343;50.152;8.182;2023-02-24T08:09:09;96741.44;;;7.67;100.00
31771;BME280;18343;50.152;8.182;2023-02-24T08:11:55;96733.56;;;7.80;100.00
31771;BME280;18343;50.152;8.182;2023-02-24T08:14:43;96728.09;;;7.89;100.00
31771;BME280;18343;50.152;8.182;2023-02-24T08:17:28;96724.78;;;7.87;100.00
31771;BME280;18343;50.152;8.182;2023-02-24T08:20:14;96727.19;;;7.81;100.00
31771;BME280;18343;50.152;8.182;2023-02-24T08:22:58;96725.41;;;7.89;100.00
31771;BME280;18343;50.152;8.182;2023-02-24T08:25:43;96708.16;;;7.98;100.00
31771;BME280;18343;50.152;8.182;2023-02-24T08:28:30;96708.47;;;8.09;100.00
31771;BME280;18343;50.152;8.182;2023-02-24T08:31:14;96715.34;;;8.19;100.00
31771;BME280;18343;50.152;8.182;2023-02-24T08:33:59;96701.75;;;8.20;100.00
31771;BME280;18343;50.152;8.182;2023-02-24T08:36:44;96702.16;;;8.24;100.00
31771;BME280;18343;50.152;8.182;2023-02-24T08:39:29;96701.50;;;8.15;100.00
31771;BME280;18343;50.152;8.182;2023-02-24T08:42:13;96698.03;;;8.21;100.00
31771;BME280;18343;50.152;8.182;2023-02-24T08:44:59;96698.72;;;8.02;100.00
31771;BME280;18343;50.152;8.182;2023-02-24T08:47:44;96692.22;;;8.11;100.00
31771;BME280;18343;50.152;8.182;2023-02-24T08:50:29;96698.59;;;8.10;100.00
31771;BME280;18343;50.152;8.182;2023-02-24T08:53:15;96686.47;;;8.14;100.00
31771;BME280;18343;50.152;8.182;2023-02-24T08:56:02;96691.97;;;8.06;100.00
31771;BME280;18343;50.152;8.182;2023-02-24T08:58:46;96691.31;;;7.76;100.00
31771;BME280;18343;50.152;8.182;2023-02-24T09:01:35;96686.78;;;7.76;100.00
31771;BME280;18343;50.152;8.182;2023-02-24T09:04:20;96682.78;;;7.94;100.00
31771;BME280;18343;50.152;8.182;2023-02-24T09:07:05;96683.03;;;7.99;100.00
31771;BME280;18343;50.152;8.182;2023-02-24T09:09:50;96687.53;;;7.92;100.00
31771;BME280;18343;50.152;8.182;2023-02-24T09:12:35;96680.31;;;7.64;100.00
31771;BME280;18343;50.152;8.182;2023-02-24T09:15:22;96674.78;;;7.66;100.00
31771;BME280;18343;50.152;8.182;2023-02-24T09:18:08;96672.22;;;7.58;100.00
31771;BME280;18343;50.152;8.182;2023-02-24T09:20:53;96661.03;;;7.75;100.00
31771;BME280;18343;50.152;8.182;2023-02-24T09:23:37;96663.44;;;7.92;100.00
31771;BME280;18343;50.152;8.182;2023-02-24T09:26:22;96656.75;;;8.09;100.00
31771;BME280;18343;50.152;8.182;2023-02-24T09:29:09;96657.03;;;7.86;100.00
31771;BME280;18343;50.152;8.182;2023-02-24T09:31:57;96648.81;;;7.94;100.00
31771;BME280;18343;50.152;8.182;2023-02-24T09:34:43;96654.84;;;8.03;100.00
31771;BME280;18343;50.152;8.182;2023-02-24T09:37:28;96648.56;;;7.82;100.00
31771;BME280;18343;50.152;8.182;2023-02-24T09:40:13;96639.09;;;8.14;100.00
31771;BME280;18343;50.152;8.182;2023-02-24T09:42:57;96635.19;;;8.17;100.00
31771;BME280;18343;50.152;8.182;2023-02-24T09:46:03;96632.69;;;8.43;100.00
31771;BME280;18343;50.152;8.182;2023-02-24T09:48:54;96627.00;;;8.32;100.00
31771;BME280;18343;50.152;8.182;2023-02-24T09:51:41;96627.28;;;8.37;100.00
31771;BME280;18343;50.152;8.182;2023-02-24T09:54:30;96624.59;;;8.37;100.00
31771;BME280;18343;50.152;8.182;2023-02-24T09:57:21;96623.44;;;7.84;100.00
31771;BME280;18343;50.152;8.182;2023-02-24T10:00:22;96610.19;;;8.38;100.00
31771;BME280;18343;50.152;8.182;2023-02-24T10:03:13;96619.47;;;8.42;100.00
31771;BME280;18343;50.152;8.182;2023-02-24T10:06:10;96612.72;;;8.46;100.00
31771;BME280;18343;50.152;8.182;2023-02-24T10:09:02;96609.47;;;7.88;100.00
31771;BME280;18343;50.152;8.182;2023-02-24T10:11:52;96602.38;;;8.49;100.00
31771;BME280;18343;50.152;8.182;2023-02-24T10:14:48;96594.81;;;8.60;100.00
31771;BME280;18343;50.152;8.182;2023-02-24T10:17:34;96594.75;;;8.40;100.00
31771;BME280;18343;50.152;8.182;2023-02-24T10:20:22;96587.78;;;8.52;100.00
31771;BME280;18343;50.152;8.182;2023-02-24T10:23:13;96579.41;;;8.27;100.00
31771;BME280;18343;50.152;8.182;2023-02-24T10:26:06;96590.44;;;7.76;100.00
31771;BME280;18343;50.152;8.182;2023-02-24T10:29:01;96584.16;;;7.91;100.00
31771;BME280;18343;50.152;8.182;2023-02-24T10:31:49;96582.91;;;7.93;100.00
31771;BME280;18343;50.152;8.182;2023-02-24T10:34:33;96576.97;;;7.98;100.00
31771;BME280;18343;50.152;8.182;2023-02-24T10:37:24;96565.91;;;8.48;100.00
31771;BME280;18343;50.152;8.182;2023-02-24T10:40:11;96572.16;;;8.62;100.00
31771;BME280;18343;50.152;8.182;2023-02-24T10:43:05;96562.47;;;8.68;100.00
31771;BME280;18343;50.152;8.182;2023-02-24T10:45:50;96566.22;;;8.73;100.00
31771;BME280;18343;50.152;8.182;2023-02-24T10:48:35;96561.44;;;8.75;100.00
31771;BME280;18343;50.152;8.182;2023-02-24T10:51:22;96564.50;;;8.59;100.00
31771;BME280;18343;50.152;8.182;2023-02-24T10:54:13;96555.44;;;8.60;100.00
31771;BME280;18343;50.152;8.182;2023-02-24T10:57:05;96558.16;;;8.80;100.00
31771;BME280;18343;50.152;8.182;2023-02-24T10:59:57;96550.09;;;8.60;100.00
31771;BME280;18343;50.152;8.182;2023-02-24T11:02:48;96549.31;;;8.73;100.00
31771;BME280;18343;50.152;8.182;2023-02-24T11:05:42;96546.84;;;8.91;100.00
31771;BME280;18343;50.152;8.182;2023-02-24T11:08:27;96537.38;;;9.15;100.00
31771;BME280;18343;50.152;8.182;2023-02-24T11:11:15;96530.78;;;9.18;100.00
31771;BME280;18343;50.152;8.182;2023-02-24T11:14:01;96521.69;;;8.86;100.00
31771;BME280;18343;50.152;8.182;2023-02-24T11:16:53;96518.78;;;8.67;100.00
31771;BME280;18343;50.152;8.182;2023-02-24T11:19:46;96512.56;;;8.60;100.00
31771;BME280;18343;50.152;8.182;2023-02-24T11:22:38;96510.34;;;9.03;100.00
31771;BME280;18343;50.152;8.182;2023-02-24T11:25:31;96503.53;;;8.94;100.00
31771;BME280;18343;50.152;8.182;2023-02-24T11:28:51;96492.63;;;9.15;100.00
31771;BME280;18343;50.152;8.182;2023-02-24T11:31:54;96477.75;;;9.06;100.00
31771;BME280;18343;50.152;8.182;2023-02-24T11:34:49;96473.84;;;9.15;100.00
31771;BME280;18343;50.152;8.182;2023-02-24T11:37:39;96470.34;;;9.22;100.00
31771;BME280;18343;50.152;8.182;2023-02-24T11:40:32;96474.44;;;9.31;100.00
31771;BME280;18343;50.152;8.182;2023-02-24T11:43:24;96468.28;;;9.24;100.00
31771;BME280;18343;50.152;8.182;2023-02-24T11:46:13;96464.31;;;9.33;100.00
31771;BME280;18343;50.152;8.182;2023-02-24T11:49:13;96459.81;;;9.27;100.00
31771;BME280;18343;50.152;8.182;2023-02-24T11:52:01;96448.63;;;9.43;100.00
31771;BME280;18343;50.152;8.182;2023-02-24T11:54:52;96440.63;;;9.16;98.91
31771;BME280;18343;50.152;8.182;2023-02-24T11:57:41;96444.94;;;9.04;100.00
31771;BME280;18343;50.152;8.182;2023-02-24T12:00:32;96442.28;;;9.11;100.00
31771;BME280;18343;50.152;8.182;2023-02-24T12:03:28;96430.31;;;8.94;100.00
31771;BME280;18343;50.152;8.182;2023-02-24T12:06:22;96421.66;;;8.59;100.00
31771;BME280;18343;50.152;8.182;2023-02-24T12:09:15;96418.38;;;8.96;99.39
31771;BME280;18343;50.152;8.182;2023-02-24T12:12:07;96415.47;;;8.85;96.53
31771;BME280;18343;50.152;8.182;2023-02-24T12:14:58;96402.88;;;9.11;99.75
31771;BME280;18343;50.152;8.182;2023-02-24T12:17:53;96397.91;;;9.08;97.12
31771;BME280;18343;50.152;8.182;2023-02-24T12:20:45;96390.28;;;9.19;98.83
31771;BME280;18343;50.152;8.182;2023-02-24T12:23:34;96389.78;;;9.48;99.03
31771;BME280;18343;50.152;8.182;2023-02-24T12:26:22;96384.63;;;9.53;98.49
31771;BME280;18343;50.152;8.182;2023-02-24T12:29:35;96381.75;;;9.48;97.05
31771;BME280;18343;50.152;8.182;2023-02-24T12:32:38;96376.41;;;9.35;96.66
31771;BME280;18343;50.152;8.182;2023-02-24T12:35:37;96376.72;;;9.65;98.45
31771;BME280;18343;50.152;8.182;2023-02-24T12:38:50;96367.38;;;9.74;98.54
31771;BME280;18343;50.152;8.182;2023-02-24T12:41:59;96365.91;;;9.84;98.70
31771;BME280;18343;50.152;8.182;2023-02-24T12:44:51;96375.16;;;9.89;98.10
31771;BME280;18343;50.152;8.182;2023-02-24T12:47:48;96369.34;;;9.92;97.71
31771;BME280;18343;50.152;8.182;2023-02-24T12:50:46;96369.97;;;9.94;97.75
31771;BME280;18343;50.152;8.182;2023-02-24T12:53:42;96362.97;;;9.86;97.53
31771;BME280;18343;50.152;8.182;2023-02-24T12:56:36;96354.34;;;9.84;97.72
31771;BME280;18343;50.152;8.182;2023-02-24T12:59:29;96349.34;;;9.88;97.81
31771;BME280;18343;50.152;8.182;2023-02-24T13:02:23;96342.28;;;9.55;96.24
31771;BME280;18343;50.152;8.182;2023-02-24T13:05:21;96346.94;;;9.22;97.38
31771;BME280;18343;50.152;8.182;2023-02-24T13:08:33;96342.19;;;9.24;98.04
31771;BME280;18343;50.152;8.182;2023-02-24T13:11:38;96339.63;;;9.48;97.69
31771;BME280;18343;50.152;8.182;2023-02-24T13:14:42;96331.41;;;9.37;97.95
31771;BME280;18343;50.152;8.182;2023-02-24T13:17:29;96322.91;;;9.46;97.38
31771;BME280;18343;50.152;8.182;2023-02-24T13:20:36;96320.16;;;9.60;97.64
31771;BME280;18343;50.152;8.182;2023-02-24T13:23:24;96315.16;;;9.70;97.88
31771;BME280;18343;50.152;8.182;2023-02-24T13:26:09;96318.56;;;9.52;97.23
31771;BME280;18343;50.152;8.182;2023-02-24T13:29:02;96315.56;;;9.29;98.58
31771;BME280;18343;50.152;8.182;2023-02-24T13:31:52;96309.47;;;8.82;98.52
31771;BME280;18343;50.152;8.182;2023-02-24T13:34:43;96307.13;;;9.12;98.12
31771;BME280;18343;50.152;8.182;2023-02-24T13:37:33;96302.41;;;9.07;97.99
31771;BME280;18343;50.152;8.182;2023-02-24T13:40:23;96286.28;;;9.21;97.72
31771;BME280;18343;50.152;8.182;2023-02-24T13:43:24;96284.38;;;8.70;98.06
31771;BME280;18343;50.152;8.182;2023-02-24T13:46:22;96278.88;;;9.16;97.45
31771;BME280;18343;50.152;8.182;2023-02-24T13:49:28;96277.53;;;9.38;97.03
31771;BME280;18343;50.152;8.182;2023-02-24T13:52:35;96277.44;;;9.13;96.40
31771;BME280;18343;50.152;8.182;2023-02-24T13:59:13;96273.28;;;9.24;96.91
31771;BME280;18343;50.152;8.182;2023-02-24T14:02:14;96270.72;;;9.36;96.61
31771;BME280;18343;50.152;8.182;2023-02-24T14:05:01;96265.97;;;9.38;96.18
31771;BME280;18343;50.152;8.182;2023-02-24T14:07:52;96267.84;;;9.31;96.50
31771;BME280;18343;50.152;8.182;2023-02-24T14:10:44;96267.84;;;9.31;96.13
31771;BME280;18343;50.152;8.182;2023-02-24T14:13:31;96259.88;;;9.18;96.05
31771;BME280;18343;50.152;8.182;2023-02-24T14:16:20;96251.50;;;8.94;94.57
31771;BME280;18343;50.152;8.182;2023-02-24T14:19:13;96258.59;;;8.56;95.17
31771;BME280;18343;50.152;8.182;2023-02-24T14:21:59;96251.63;;;8.41;95.33
31771;BME280;18343;50.152;8.182;2023-02-24T14:24:43;96251.59;;;8.28;95.14
31771;BME280;18343;50.152;8.182;2023-02-24T14:27:28;96245.88;;;8.44;94.75
31771;BME280;18343;50.152;8.182;2023-02-24T14:30:27;96247.25;;;8.67;95.45
31771;BME280;18343;50.152;8.182;2023-02-24T14:33:27;96239.97;;;8.94;94.75
31771;BME280;18343;50.152;8.182;2023-02-24T14:36:18;96244.72;;;8.85;94.73
31771;BME280;18343;50.152;8.182;2023-02-24T14:39:12;96232.69;;;8.43;94.84
31771;BME280;18343;50.152;8.182;2023-02-24T14:42:11;96237.13;;;8.75;94.81
31771;BME280;18343;50.152;8.182;2023-02-24T14:44:58;96225.34;;;8.90;94.04
31771;BME280;18343;50.152;8.182;2023-02-24T14:47:42;96226.16;;;8.90;93.04
31771;BME280;18343;50.152;8.182;2023-02-24T14:50:30;96223.91;;;8.87;93.88
31771;BME280;18343;50.152;8.182;2023-02-24T14:53:19;96221.16;;;8.42;93.70
31771;BME280;18343;50.152;8.182;2023-02-24T14:56:07;96225.06;;;8.33;94.92
31771;BME280;18343;50.152;8.182;2023-02-24T14:58:56;96219.25;;;8.23;94.96
31771;BME280;18343;50.152;8.182;2023-02-24T15:01:44;96212.91;;;8.44;93.28
31771;BME280;18343;50.152;8.182;2023-02-24T15:04:34;96221.34;;;8.08;93.80
31771;BME280;18343;50.152;8.182;2023-02-24T15:07:23;96214.34;;;8.33;93.28
31771;BME280;18343;50.152;8.182;2023-02-24T15:10:19;96197.16;;;8.67;92.78